createdAt,value
2018-08-24T00:02:16.972Z,10.13
2018-08-24T00:04:45.673Z,9.30
2018-08-24T00:07:14.402Z,10.50
2018-08-24T00:09:43.238Z,10.07
2018-08-24T00:12:12.012Z,9.83
2018-08-24T00:14:40.787Z,10.72
2018-08-24T00:17:14.784Z,8.38
2018-08-24T00:19:43.412Z,8.23
2018-08-24T00:22:12.147Z,8.35
2018-08-24T00:24:40.791Z,10.98
2018-08-24T00:27:09.407Z,8.83
2018-08-24T00:29:38.188Z,9.73
2018-08-24T00:32:06.800Z,9.90
2018-08-24T00:34:35.406Z,10.47
2018-08-24T00:37:04.480Z,10.25
2018-08-24T00:39:33.054Z,10.40
2018-08-24T00:42:01.858Z,10.43
2018-08-24T00:44:30.561Z,8.83
2018-08-24T00:47:04.616Z,10.80
2018-08-24T00:49:33.249Z,11.93
2018-08-24T00:52:01.897Z,9.83
2018-08-24T00:54:30.468Z,10.78
2018-08-24T00:56:59.126Z,8.83
2018-08-24T00:59:28.002Z,10.10
2018-08-24T01:01:57.009Z,10.40
2018-08-24T01:04:31.054Z,10.27
2018-08-24T01:07:00.435Z,11.00
2018-08-24T01:09:29.283Z,12.77
2018-08-24T01:12:03.685Z,14.40
2018-08-24T01:14:32.532Z,11.77
2018-08-24T01:17:06.372Z,12.87
2018-08-24T01:19:38.370Z,10.57
2018-08-24T01:22:08.280Z,11.80
2018-08-24T01:24:39.872Z,11.50
2018-08-24T01:27:14.434Z,10.87
2018-08-24T01:29:51.774Z,9.97
2018-08-24T01:32:23.488Z,12.73
2018-08-24T01:34:53.703Z,14.53
2018-08-24T01:37:31.185Z,10.00
2018-08-24T01:40:07.290Z,12.60
2018-08-24T01:42:39.248Z,12.33
2018-08-24T01:47:49.350Z,11.37
2018-08-24T01:50:30.541Z,10.33
2018-08-24T01:53:00.480Z,18.37
2018-08-24T01:55:30.992Z,18.67
2018-08-24T01:58:00.452Z,17.13
2018-08-24T02:00:31.555Z,17.97
2018-08-24T02:05:44.098Z,17.40
2018-08-24T02:08:18.168Z,16.60
2018-08-24T02:19:37.428Z,24.20
2018-08-24T02:22:13.833Z,22.23
2018-08-24T02:24:45.376Z,21.03
2018-08-24T02:27:18.875Z,19.63
2018-08-24T02:29:59.721Z,22.50
2018-08-24T02:32:30.016Z,18.33
2018-08-24T02:35:01.411Z,18.70
2018-08-24T02:37:44.621Z,15.43
2018-08-24T02:43:28.374Z,22.70
2018-08-24T02:49:33.646Z,30.67
2018-08-24T03:00:56.368Z,28.73
2018-08-24T03:03:25.282Z,22.33
2018-08-24T03:05:54.004Z,36.43
2018-08-24T03:08:22.790Z,35.48
2018-08-24T03:10:51.486Z,36.08
2018-08-24T03:13:20.320Z,32.47
2018-08-24T03:15:49.570Z,29.57
2018-08-24T03:18:18.682Z,36.68
2018-08-24T03:20:47.428Z,32.03
2018-08-24T03:23:16.425Z,26.55
2018-08-24T03:25:46.385Z,33.23
2018-08-24T03:28:16.510Z,30.93
2018-08-24T03:30:46.138Z,25.13
2018-08-24T03:33:16.383Z,31.20
2018-08-24T03:35:46.636Z,32.37
2018-08-24T03:38:15.979Z,32.03
2018-08-24T03:40:46.667Z,28.53
2018-08-24T03:43:15.695Z,26.93
2018-08-24T03:45:46.015Z,24.70
2018-08-24T03:48:16.146Z,26.30
2018-08-24T03:50:45.826Z,28.70
2018-08-24T03:53:15.655Z,27.90
2018-08-24T03:55:46.612Z,23.43
2018-08-24T03:58:16.100Z,31.77
2018-08-24T04:00:46.539Z,25.30
2018-08-24T04:03:15.229Z,19.97
2018-08-24T04:05:44.298Z,20.80
2018-08-24T04:08:13.035Z,24.50
2018-08-24T04:10:42.563Z,19.52
2018-08-24T04:13:11.282Z,18.57
2018-08-24T04:15:39.638Z,15.95
2018-08-24T04:18:07.991Z,17.37
2018-08-24T04:20:36.344Z,13.35
2018-08-24T04:23:05.344Z,12.20
2018-08-24T04:25:33.903Z,13.77
2018-08-24T04:28:02.207Z,15.78
2018-08-24T04:30:30.691Z,11.80
2018-08-24T04:32:59.153Z,14.35
2018-08-24T04:35:27.439Z,16.20
2018-08-24T04:37:55.709Z,12.07
2018-08-24T04:40:24.095Z,13.25
2018-08-24T04:42:52.269Z,14.03
2018-08-24T04:45:20.651Z,14.30
2018-08-24T04:47:49.120Z,13.25
2018-08-24T04:50:17.822Z,11.80
2018-08-24T04:52:46.716Z,11.95
2018-08-24T04:55:15.171Z,14.05
2018-08-24T04:57:43.800Z,13.70
2018-08-24T05:00:12.161Z,12.00
2018-08-24T05:02:40.459Z,10.80
2018-08-24T05:05:09.337Z,9.40
2018-08-24T05:07:37.703Z,10.77
2018-08-24T05:10:06.347Z,11.18
2018-08-24T05:12:41.388Z,8.40
2018-08-24T05:15:09.695Z,9.03
2018-08-24T05:17:38.034Z,8.63
2018-08-24T05:20:06.558Z,9.13
2018-08-24T05:22:34.968Z,9.50
2018-08-24T05:25:03.448Z,7.63
2018-08-24T05:27:31.699Z,7.20
2018-08-24T05:30:01.000Z,8.60
2018-08-24T05:32:29.370Z,7.13
2018-08-24T05:34:57.657Z,8.28
2018-08-24T05:37:26.032Z,11.03
2018-08-24T05:39:54.298Z,7.30
2018-08-24T05:42:22.593Z,5.83
2018-08-24T05:44:50.945Z,6.10
2018-08-24T05:47:19.754Z,7.05
2018-08-24T05:49:48.107Z,6.40
2018-08-24T05:52:16.427Z,5.67
2018-08-24T05:54:46.123Z,5.93
2018-08-24T05:57:15.732Z,5.57
2018-08-24T05:59:44.716Z,6.43
2018-08-24T06:02:13.097Z,4.80
2018-08-24T06:04:41.394Z,7.47
2018-08-24T06:07:09.680Z,4.10
2018-08-24T06:09:37.920Z,4.33
2018-08-24T06:12:06.209Z,6.67
2018-08-24T06:14:34.473Z,6.00
2018-08-24T06:17:08.145Z,5.58
2018-08-24T06:19:36.547Z,4.50
2018-08-24T06:22:05.096Z,3.65
2018-08-24T06:24:33.452Z,4.07
2018-08-24T06:27:01.960Z,5.55
2018-08-24T06:29:30.278Z,4.50
2018-08-24T06:31:58.550Z,6.27
2018-08-24T06:34:26.883Z,4.62
2018-08-24T06:36:55.144Z,5.87
2018-08-24T06:39:23.440Z,4.50
2018-08-24T06:41:51.763Z,4.95
2018-08-24T06:44:20.975Z,4.60
2018-08-24T06:46:49.345Z,4.17
2018-08-24T06:49:17.793Z,6.25
2018-08-24T06:51:46.318Z,4.57
2018-08-24T06:54:16.416Z,5.20
2018-08-24T06:56:45.507Z,5.33
2018-08-24T06:59:15.261Z,5.90
2018-08-24T07:01:44.372Z,5.27
2018-08-24T07:04:13.834Z,5.47
2018-08-24T07:06:43.573Z,5.13
2018-08-24T07:09:12.614Z,4.40
2018-08-24T07:11:40.966Z,5.17
2018-08-24T07:14:09.329Z,5.17
2018-08-24T07:16:37.652Z,4.37
2018-08-24T07:19:06.070Z,6.33
2018-08-24T07:21:35.462Z,5.10
2018-08-24T07:24:04.116Z,7.57
2018-08-24T07:26:33.466Z,8.00
2018-08-24T07:29:03.503Z,5.20
2018-08-24T07:31:31.817Z,5.60
2018-08-24T07:34:00.195Z,6.10
2018-08-24T07:36:28.661Z,5.57
2018-08-24T07:38:56.996Z,5.62
2018-08-24T07:41:25.586Z,6.10
2018-08-24T07:43:59.435Z,7.67
2018-08-24T07:46:27.946Z,7.67
2018-08-24T07:48:56.230Z,9.73
2018-08-24T07:51:24.498Z,8.67
2018-08-24T07:53:52.793Z,9.33
2018-08-24T07:56:21.065Z,8.47
2018-08-24T07:58:49.413Z,9.93
2018-08-24T08:01:18.025Z,8.80
2018-08-24T08:03:46.982Z,8.57
2018-08-24T08:06:15.383Z,8.40
2018-08-24T08:08:44.284Z,8.18
2018-08-24T08:11:12.967Z,8.55
2018-08-24T08:13:41.224Z,10.10
2018-08-24T08:16:10.505Z,7.72
2018-08-24T08:18:38.837Z,9.57
2018-08-24T08:21:07.144Z,9.80
2018-08-24T08:23:35.459Z,9.50
2018-08-24T08:26:03.812Z,8.63
2018-08-24T08:28:32.214Z,10.63
2018-08-24T08:31:00.506Z,9.70
2018-08-24T08:33:28.792Z,10.53
2018-08-24T08:35:57.069Z,8.40
2018-08-24T08:38:25.336Z,11.63
2018-08-24T08:40:53.600Z,8.93
2018-08-24T08:43:21.998Z,10.60
2018-08-24T08:45:50.493Z,8.75
2018-08-24T08:48:18.837Z,11.00
2018-08-24T08:50:47.128Z,8.85
2018-08-24T08:53:15.712Z,9.93
2018-08-24T08:55:44.397Z,9.43
2018-08-24T08:58:13.354Z,9.43
2018-08-24T09:00:41.698Z,8.90
2018-08-24T09:03:10.032Z,9.87
2018-08-24T09:05:38.285Z,9.17
2018-08-24T09:08:06.541Z,9.37
2018-08-24T09:10:34.937Z,8.67
2018-08-24T09:13:03.381Z,8.50
2018-08-24T09:15:31.630Z,9.70
2018-08-24T09:19:08.157Z,8.40
2018-08-24T09:21:42.739Z,8.83
2018-08-24T09:24:16.301Z,11.03
2018-08-24T09:26:50.750Z,9.77
2018-08-24T09:29:25.699Z,10.43
2018-08-24T09:31:54.337Z,10.50
2018-08-24T09:34:22.784Z,11.63
2018-08-24T09:36:51.143Z,10.73
2018-08-24T09:39:25.853Z,12.53
2018-08-24T09:41:56.075Z,11.40
2018-08-24T09:44:24.369Z,11.67
2018-08-24T09:46:58.049Z,12.53
2018-08-24T09:49:26.837Z,10.17
2018-08-24T09:51:55.339Z,11.07
2018-08-24T09:54:24.024Z,11.57
2018-08-24T09:56:52.485Z,11.77
2018-08-24T09:59:20.777Z,10.63
2018-08-24T10:01:56.167Z,12.63
2018-08-24T10:04:29.719Z,10.07
2018-08-24T10:07:03.367Z,10.27
2018-08-24T10:09:31.779Z,10.33
2018-08-24T10:12:00.139Z,10.95
2018-08-24T10:14:28.461Z,11.03
2018-08-24T10:16:56.725Z,13.83
2018-08-24T10:19:25.016Z,12.27
2018-08-24T10:21:53.363Z,12.03
2018-08-24T10:24:21.638Z,11.85
2018-08-24T10:26:50.087Z,11.60
2018-08-24T10:29:18.779Z,12.53
2018-08-24T10:31:47.684Z,12.37
2018-08-24T10:34:16.387Z,10.67
2018-08-24T10:36:47.143Z,11.53
2018-08-24T10:39:15.655Z,11.77
2018-08-24T10:41:45.263Z,8.45
2018-08-24T10:44:13.951Z,7.47
2018-08-24T10:46:42.193Z,8.63
2018-08-24T10:49:10.518Z,8.17
2018-08-24T10:51:38.738Z,9.58
2018-08-24T10:54:07.092Z,10.63
2018-08-24T10:56:35.397Z,10.13
2018-08-24T10:59:03.975Z,8.73
2018-08-24T11:01:32.257Z,9.40
2018-08-24T11:04:00.545Z,7.50
2018-08-24T11:06:35.160Z,7.67
2018-08-24T11:09:05.033Z,9.40
2018-08-24T11:11:33.547Z,6.07
2018-08-24T11:14:01.993Z,6.90
2018-08-24T11:16:30.259Z,7.57
2018-08-24T11:18:58.577Z,6.45
2018-08-24T11:21:26.927Z,8.20
2018-08-24T11:23:55.333Z,6.83
2018-08-24T11:26:23.626Z,6.00
2018-08-24T11:28:51.891Z,8.17
2018-08-24T11:31:20.266Z,6.67
2018-08-24T11:33:48.665Z,7.78
2018-08-24T11:36:17.258Z,7.23
2018-08-24T11:38:45.724Z,7.35
2018-08-24T11:41:14.948Z,6.90
2018-08-24T11:43:44.532Z,7.83
2018-08-24T11:46:13.589Z,6.37
2018-08-24T11:48:43.828Z,7.03
2018-08-24T11:51:12.070Z,7.53
2018-08-24T11:53:40.389Z,7.03
2018-08-24T11:56:08.670Z,7.42
2018-08-24T11:58:37.025Z,8.37
2018-08-24T12:01:05.342Z,7.90
2018-08-24T12:03:33.729Z,6.70
2018-08-24T12:06:02.007Z,7.80
2018-08-24T12:08:30.296Z,6.23
2018-08-24T12:10:58.492Z,5.50
2018-08-24T12:13:26.745Z,6.20
2018-08-24T12:15:54.964Z,6.10
2018-08-24T12:18:23.272Z,6.00
2018-08-24T12:20:51.429Z,4.75
2018-08-24T12:23:19.798Z,5.50
2018-08-24T12:25:48.260Z,5.28
2018-08-24T12:28:17.759Z,4.50
2018-08-24T12:30:46.294Z,3.83
2018-08-24T12:33:15.250Z,6.53
2018-08-24T12:35:44.526Z,3.93
2018-08-24T12:38:13.630Z,5.12
2018-08-24T12:40:42.600Z,6.17
2018-08-24T12:43:10.868Z,5.47
2018-08-24T12:45:39.105Z,5.20
2018-08-24T12:48:07.377Z,6.00
2018-08-24T12:50:35.688Z,6.43
2018-08-24T12:53:03.996Z,5.13
2018-08-24T12:55:32.219Z,5.90
2018-08-24T12:58:00.454Z,5.00
2018-08-24T13:00:28.680Z,5.90
2018-08-24T13:02:56.905Z,4.53
2018-08-24T13:05:25.140Z,5.97
2018-08-24T13:07:53.442Z,5.97
2018-08-24T13:10:22.149Z,5.37
2018-08-24T13:12:50.422Z,5.30
2018-08-24T13:15:18.867Z,3.63
2018-08-24T13:17:47.687Z,4.27
2018-08-24T13:20:16.023Z,5.03
2018-08-24T13:22:46.047Z,4.23
2018-08-24T13:25:15.545Z,7.83
2018-08-24T13:27:45.250Z,4.77
2018-08-24T13:30:14.063Z,4.10
2018-08-24T13:32:43.347Z,5.37
2018-08-24T13:35:11.666Z,4.97
2018-08-24T13:37:39.942Z,5.10
2018-08-24T13:40:08.220Z,4.87
2018-08-24T13:42:36.491Z,5.80
2018-08-24T13:45:04.755Z,5.77
2018-08-24T13:47:33.159Z,5.97
2018-08-24T13:50:01.344Z,5.97
2018-08-24T13:52:29.554Z,6.20
2018-08-24T13:54:57.791Z,4.60
2018-08-24T13:57:26.108Z,4.67
2018-08-24T13:59:54.358Z,3.83
2018-08-24T14:02:22.709Z,6.60
2018-08-24T14:04:51.159Z,4.33
2018-08-24T14:07:19.439Z,6.28
2018-08-24T14:09:47.942Z,7.23
2018-08-24T14:12:16.667Z,4.15
2018-08-24T14:14:45.117Z,5.83
2018-08-24T14:17:14.028Z,5.28
2018-08-24T14:19:43.548Z,4.72
2018-08-24T14:22:12.548Z,5.63
2018-08-24T14:24:40.805Z,3.30
2018-08-24T14:27:09.088Z,4.83
2018-08-24T14:29:37.353Z,3.92
2018-08-24T14:32:05.747Z,4.37
2018-08-24T14:34:34.094Z,4.05
2018-08-24T14:37:02.468Z,3.27
2018-08-24T14:39:30.734Z,5.77
2018-08-24T14:41:58.987Z,3.47
2018-08-24T14:44:27.334Z,4.23
2018-08-24T14:46:55.641Z,4.70
2018-08-24T14:49:23.884Z,4.60
2018-08-24T14:51:52.136Z,6.83
2018-08-24T14:54:20.543Z,4.70
2018-08-24T14:56:48.878Z,4.83
2018-08-24T14:59:17.208Z,4.85
2018-08-24T15:01:45.598Z,5.63
2018-08-24T15:04:15.040Z,5.97
2018-08-24T15:06:44.360Z,4.53
2018-08-24T15:09:13.706Z,5.80
2018-08-24T15:11:42.690Z,4.10
2018-08-24T15:14:10.969Z,4.80
2018-08-24T15:16:39.279Z,4.53
2018-08-24T15:19:07.641Z,3.70
2018-08-24T15:21:39.083Z,4.70
2018-08-24T15:24:07.629Z,6.03
2018-08-24T15:26:35.885Z,4.10
2018-08-24T15:29:04.150Z,6.43
2018-08-24T15:31:32.630Z,6.00
2018-08-24T15:34:01.017Z,6.90
2018-08-24T15:36:31.313Z,6.20
2018-08-24T15:38:59.652Z,5.87
2018-08-24T15:41:27.957Z,4.35
2018-08-24T15:43:56.481Z,4.60
2018-08-24T15:46:25.036Z,5.22
2018-08-24T15:48:53.271Z,6.43
2018-08-24T15:51:21.550Z,3.70
2018-08-24T15:53:52.863Z,3.85
2018-08-24T15:56:21.192Z,4.93
2018-08-24T15:58:49.509Z,5.00
2018-08-24T16:01:18.244Z,5.80
2018-08-24T16:03:47.702Z,5.20
2018-08-24T16:06:15.974Z,4.53
2018-08-24T16:08:46.539Z,4.17
2018-08-24T16:11:17.360Z,5.73
2018-08-24T16:13:48.455Z,6.10
2018-08-24T16:16:17.013Z,6.03
2018-08-24T16:18:45.828Z,5.33
2018-08-24T16:21:16.060Z,5.10
2018-08-24T16:23:46.861Z,5.70
2018-08-24T16:26:20.545Z,3.00
2018-08-24T16:28:49.737Z,5.97
2018-08-24T16:31:19.368Z,7.10
2018-08-24T16:33:47.877Z,5.63
2018-08-24T16:36:16.452Z,5.25
2018-08-24T16:38:46.428Z,8.67
2018-08-24T16:41:16.337Z,6.87
2018-08-24T16:43:46.355Z,3.80
2018-08-24T16:46:17.232Z,7.10
2018-08-24T16:48:45.847Z,5.43
2018-08-24T16:51:15.668Z,5.22
2018-08-24T16:53:44.810Z,4.90
2018-08-24T16:56:14.470Z,6.00
2018-08-24T16:58:43.856Z,4.63
2018-08-24T17:01:12.131Z,4.90
2018-08-24T17:03:40.439Z,4.57
2018-08-24T17:06:08.669Z,5.70
2018-08-24T17:08:36.986Z,5.17
2018-08-24T17:11:05.299Z,6.53
2018-08-24T17:13:33.703Z,5.17
2018-08-24T17:16:02.718Z,5.60
2018-08-24T17:18:33.776Z,6.20
2018-08-24T17:21:04.590Z,3.60
2018-08-24T17:23:35.804Z,5.23
2018-08-24T17:28:52.813Z,3.63
2018-08-24T17:31:30.328Z,5.27
2018-08-24T17:34:02.294Z,4.53
2018-08-24T17:36:30.745Z,5.50
2018-08-24T17:39:17.363Z,7.05
2018-08-24T17:41:45.681Z,3.87
2018-08-24T17:44:14.905Z,4.37
2018-08-24T17:46:46.655Z,4.40
2018-08-24T17:49:20.129Z,5.03
2018-08-24T17:51:51.573Z,5.13
2018-08-24T17:54:21.271Z,5.70
2018-08-24T17:56:49.898Z,2.47
2018-08-24T17:59:21.193Z,5.42
2018-08-24T18:02:02.422Z,4.40
2018-08-24T18:04:37.028Z,5.73
2018-08-24T18:07:05.688Z,3.53
2018-08-24T18:09:35.387Z,2.80
2018-08-24T18:12:04.372Z,5.03
2018-08-24T18:14:44.758Z,5.70
2018-08-24T18:17:18.081Z,3.60
2018-08-24T18:19:48.240Z,4.73
2018-08-24T18:22:17.417Z,4.07
2018-08-24T18:24:45.855Z,4.67
2018-08-24T18:27:15.847Z,4.90
2018-08-24T18:29:44.816Z,3.40
2018-08-24T18:32:13.021Z,6.87
2018-08-24T18:34:41.454Z,4.50
2018-08-24T18:37:09.952Z,5.08
2018-08-24T18:39:39.105Z,6.50
2018-08-24T18:42:07.382Z,2.93
2018-08-24T18:44:35.789Z,6.33
2018-08-24T18:47:04.132Z,4.47
2018-08-24T18:49:32.556Z,2.60
2018-08-24T18:52:00.888Z,3.80
2018-08-24T18:54:29.168Z,5.57
2018-08-24T18:56:57.677Z,4.78
2018-08-24T18:59:25.985Z,3.80
2018-08-24T19:01:54.385Z,7.43
2018-08-24T19:04:22.693Z,4.20
2018-08-24T19:06:51.006Z,3.47
2018-08-24T19:09:19.288Z,2.97
2018-08-24T19:11:52.856Z,4.17
2018-08-24T19:14:24.248Z,5.00
2018-08-24T19:16:53.174Z,3.43
2018-08-24T19:19:26.965Z,3.67
2018-08-24T19:22:04.062Z,3.47
2018-08-24T19:24:35.636Z,5.43
2018-08-24T19:27:04.021Z,4.83
2018-08-24T19:30:37.220Z,3.20
2018-08-24T19:33:05.560Z,5.07
2018-08-24T19:35:33.861Z,3.85
2018-08-24T19:38:02.239Z,6.10
2018-08-24T19:40:35.941Z,3.27
2018-08-24T19:43:04.206Z,5.00
2018-08-24T19:45:32.478Z,4.20
2018-08-24T19:48:06.054Z,3.33
2018-08-24T19:50:34.504Z,6.27
2018-08-24T19:53:02.824Z,3.40
2018-08-24T19:55:31.255Z,3.07
2018-08-24T19:58:04.957Z,4.17
2018-08-24T20:00:34.427Z,3.60
2018-08-24T20:03:06.497Z,5.07
2018-08-24T20:05:34.858Z,3.30
2018-08-24T20:08:08.632Z,5.05
2018-08-24T20:10:39.003Z,3.57
2018-08-24T20:13:07.464Z,3.40
2018-08-24T20:15:41.030Z,2.40
2018-08-24T20:18:09.241Z,3.80
2018-08-24T20:20:37.517Z,4.17
2018-08-24T20:23:06.219Z,5.17
2018-08-24T20:25:34.644Z,3.20
2018-08-24T20:28:02.916Z,5.00
2018-08-24T20:30:32.310Z,4.87
2018-08-24T20:33:06.440Z,3.73
2018-08-24T20:35:36.687Z,3.27
2018-08-24T20:38:05.344Z,5.00
2018-08-24T20:40:39.244Z,4.80
2018-08-24T20:43:07.476Z,4.60
2018-08-24T20:45:36.362Z,3.97
2018-08-24T20:48:13.265Z,3.90
2018-08-24T20:50:41.513Z,4.63
2018-08-24T20:53:09.777Z,6.50
2018-08-24T20:55:38.104Z,5.58
2018-08-24T20:58:06.255Z,4.77
2018-08-24T21:00:34.534Z,4.13
2018-08-24T21:03:03.408Z,5.87
2018-08-24T21:05:31.684Z,4.47
2018-08-24T21:07:59.878Z,7.83
2018-08-24T21:10:28.145Z,3.85
2018-08-24T21:12:56.405Z,4.57
2018-08-24T21:15:24.708Z,7.43
2018-08-24T21:17:53.001Z,6.50
2018-08-24T21:20:21.311Z,2.27
2018-08-24T21:22:50.106Z,3.87
2018-08-24T21:25:18.478Z,3.93
2018-08-24T21:27:47.016Z,3.25
2018-08-24T21:30:15.559Z,3.03
2018-08-24T21:32:44.953Z,5.37
2018-08-24T21:35:14.504Z,4.97
2018-08-24T21:37:43.824Z,5.83
2018-08-24T21:40:12.147Z,4.90
2018-08-24T21:42:40.709Z,5.08
2018-08-24T21:45:09.258Z,5.40
2018-08-24T21:47:37.532Z,7.08
2018-08-24T21:50:05.957Z,8.67
2018-08-24T21:52:35.368Z,5.97
2018-08-24T21:55:03.747Z,5.40
2018-08-24T21:57:32.032Z,5.05
2018-08-24T22:00:00.311Z,5.03
2018-08-24T22:02:28.573Z,8.40
2018-08-24T22:04:56.881Z,5.27
2018-08-24T22:07:31.177Z,5.97
2018-08-24T22:09:59.520Z,4.37
2018-08-24T22:12:27.779Z,6.45
2018-08-24T22:14:56.009Z,5.72
2018-08-24T22:17:24.272Z,4.23
2018-08-24T22:19:52.492Z,3.97
2018-08-24T22:22:20.749Z,4.70
2018-08-24T22:24:49.051Z,4.50
2018-08-24T22:27:17.392Z,5.13
2018-08-24T22:29:45.856Z,5.95
2018-08-24T22:32:14.920Z,6.10
2018-08-24T22:34:44.756Z,4.87
2018-08-24T22:37:13.016Z,3.90
2018-08-24T22:39:41.247Z,6.77
2018-08-24T22:42:09.543Z,3.83
2018-08-24T22:44:37.765Z,3.10
2018-08-24T22:47:06.110Z,4.20
2018-08-24T22:49:34.385Z,6.05
2018-08-24T22:52:02.652Z,4.17
2018-08-24T22:54:31.307Z,5.20
2018-08-24T22:56:59.527Z,2.80
2018-08-24T22:59:27.760Z,4.70
2018-08-24T23:01:56.000Z,6.63
2018-08-24T23:04:25.218Z,3.27
2018-08-24T23:06:53.486Z,5.42
2018-08-24T23:09:21.840Z,5.43
2018-08-24T23:11:50.104Z,5.08
2018-08-24T23:14:18.415Z,2.87
2018-08-24T23:16:46.778Z,4.03
2018-08-24T23:19:15.446Z,6.07
2018-08-24T23:21:45.286Z,5.22
2018-08-24T23:24:15.207Z,6.63
2018-08-24T23:26:44.353Z,4.97
2018-08-24T23:29:14.191Z,5.90
2018-08-24T23:31:43.662Z,6.77
2018-08-24T23:34:12.805Z,3.23
2018-08-24T23:36:40.994Z,4.80
2018-08-24T23:39:10.136Z,3.77
2018-08-24T23:41:38.407Z,4.28
2018-08-24T23:44:14.716Z,4.60
2018-08-24T23:46:44.117Z,5.43
2018-08-24T23:49:13.579Z,6.33
2018-08-24T23:51:42.585Z,5.33
2018-08-24T23:54:10.838Z,5.70
2018-08-24T23:56:39.030Z,5.07
2018-08-24T23:59:07.296Z,3.85
